Time;durP1;ratioP1;P1;durP2;ratioP2;P2;SDS_P1;SDS_P2;PMS_P1;PMS_P2;Temp;Humidity;BMP_temperature;BMP_pressure;BME280_temperature;BME280_humidity;BME280_pressure;Samples;Min_cycle;Max_cycle;Signal;HPM_P1;HPM_P2
2023/06/02 00:01:33;;;;;;;8.50;3.10;;;;;;;10.30;61.85;101946.88;5052184;28;20292;-84
2023/06/02 00:03:59;;;;;;;12.10;2.95;;;;;;;10.34;61.86;101939.31;5052876;28;20275;-85
2023/06/02 00:06:26;;;;;;;13.45;2.90;;;;;;;10.32;61.98;101939.50;5054396;28;20027;-85
2023/06/02 00:08:52;;;;;;;10.82;3.05;;;;;;;10.30;62.42;101936.13;5056492;28;20490;-84
2023/06/02 00:11:18;;;;;;;14.27;3.42;;;;;;;10.28;62.47;101938.13;5055000;28;20025;-84
2023/06/02 00:13:44;;;;;;;8.48;2.83;;;;;;;10.31;62.31;101943.19;5052575;28;20025;-85
2023/06/02 00:16:09;;;;;;;8.73;3.20;;;;;;;10.29;62.31;101945.19;5057401;28;20365;-85
2023/06/02 00:18:37;;;;;;;13.77;3.20;;;;;;;10.27;62.49;101936.44;5050134;28;20025;-84
2023/06/02 00:21:04;;;;;;;9.27;3.22;;;;;;;10.26;62.54;101937.47;5051452;28;20119;-84
2023/06/02 00:23:32;;;;;;;12.55;3.90;;;;;;;10.32;62.07;101940.31;5051590;28;20112;-84
2023/06/02 00:25:58;;;;;;;8.15;2.83;;;;;;;10.31;62.48;101937.81;5049507;28;20532;-84
2023/06/02 00:28:23;;;;;;;11.65;3.58;;;;;;;10.27;62.67;101931.06;5047737;28;20060;-84
2023/06/02 00:30:49;;;;;;;14.50;4.13;;;;;;;10.28;62.71;101939.00;5062632;28;20481;-85
2023/06/02 00:33:14;;;;;;;8.38;3.20;;;;;;;10.27;62.80;101941.84;5048563;28;20434;-84
2023/06/02 00:35:39;;;;;;;12.18;3.20;;;;;;;10.29;62.65;101934.44;5053478;28;20032;-85
2023/06/02 00:38:06;;;;;;;12.45;3.15;;;;;;;10.29;63.07;101939.81;5040358;28;20036;-84
2023/06/02 00:40:32;;;;;;;10.13;3.80;;;;;;;10.26;62.73;101934.75;5049376;28;20102;-84
2023/06/02 00:42:59;;;;;;;15.02;3.20;;;;;;;10.21;62.81;101931.75;5053250;28;20033;-84
2023/06/02 00:45:24;;;;;;;15.93;3.97;;;;;;;10.19;62.23;101929.22;5067749;28;20108;-84
2023/06/02 00:47:50;;;;;;;10.55;3.10;;;;;;;10.23;62.60;101924.38;5051384;28;20473;-84
2023/06/02 00:50:16;;;;;;;10.20;3.33;;;;;;;10.21;62.57;101921.81;5050954;28;20033;-84
2023/06/02 00:52:41;;;;;;;11.65;3.53;;;;;;;10.26;62.81;101924.00;5052379;28;20036;-84
2023/06/02 00:55:07;;;;;;;;;;;;;;;10.20;62.63;101925.53;5050516;28;20021;-84
2023/06/02 00:57:33;;;;;;;12.15;3.15;;;;;;;10.21;62.61;101921.00;5049317;28;20356;-84
2023/06/02 00:59:59;;;;;;;12.63;3.42;;;;;;;10.22;62.43;101922.69;5050161;28;20472;-84
2023/06/02 01:02:24;;;;;;;11.73;3.47;;;;;;;10.20;63.13;101930.06;5011748;28;20037;-85
2023/06/02 01:04:51;;;;;;;;;;;;;;;10.18;63.21;101924.03;5032529;28;20025;-84
2023/06/02 01:07:23;;;;;;;9.73;3.25;;;;;;;10.15;62.95;101923.34;5042310;28;19923;-85
2023/06/02 01:09:49;;;;;;;11.85;3.70;;;;;;;10.15;62.69;101920.66;5036987;28;20440;-85
2023/06/02 01:12:15;;;;;;;11.77;3.40;;;;;;;10.15;62.38;101930.56;5021447;28;20048;-85
2023/06/02 01:14:40;;;;;;;10.30;3.28;;;;;;;10.18;62.29;101932.09;5036298;28;20024;-84
2023/06/02 01:17:06;;;;;;;;;;;;;;;10.04;62.38;101921.00;5012781;23;20042;-84
2023/06/02 01:19:31;;;;;;;11.33;3.17;;;;;;;10.04;62.71;101926.38;5033781;28;20316;-84
2023/06/02 01:21:59;;;;;;;9.50;3.65;;;;;;;10.03;62.72;101924.69;5013033;28;20040;-83
2023/06/02 01:24:35;;;;;;;11.15;3.53;;;;;;;9.98;62.55;101922.47;5015612;28;20013;-84
2023/06/02 01:27:05;;;;;;;15.40;4.13;;;;;;;10.03;62.68;101924.69;5028637;28;20078;-84
2023/06/02 01:29:35;;;;;;;10.40;3.22;;;;;;;10.04;63.15;101923.69;5025905;28;20287;-84
2023/06/02 01:32:01;;;;;;;9.73;3.50;;;;;;;10.06;63.10;101918.94;5015730;28;20057;-83
2023/06/02 01:34:53;;;;;;;12.80;3.88;;;;;;;10.07;62.79;101919.81;5006128;28;20017;-84
2023/06/02 01:37:19;;;;;;;15.98;4.03;;;;;;;9.99;62.46;101924.16;5034637;28;20033;-84
2023/06/02 01:39:45;;;;;;;12.30;3.75;;;;;;;9.97;62.89;101922.66;5009810;28;20029;-84
2023/06/02 01:42:10;;;;;;;11.60;3.63;;;;;;;9.96;62.94;101919.13;4983194;28;20463;-84
2023/06/02 01:44:35;;;;;;;;;;;;;;;9.94;63.39;101920.28;4983705;28;20030;-84
2023/06/02 01:47:01;;;;;;;8.98;3.10;;;;;;;9.95;62.88;101921.97;5041698;28;19924;-84
2023/06/02 01:49:27;;;;;;;13.93;3.40;;;;;;;9.94;62.68;101915.75;5016921;28;20017;-83
2023/06/02 01:51:54;;;;;;;12.27;3.42;;;;;;;9.94;62.92;101917.59;5036046;28;20033;-84
2023/06/02 01:54:22;;;;;;;11.90;3.60;;;;;;;9.91;62.68;101917.94;5020076;28;20101;-84
2023/06/02 01:56:47;;;;;;;7.65;3.55;;;;;;;9.93;62.95;101921.28;5012234;28;20033;-84
2023/06/02 01:59:12;;;;;;;9.07;2.72;;;;;;;9.93;62.54;101924.00;5017573;28;20041;-85
2023/06/02 02:01:40;;;;;;;7.35;3.30;;;;;;;9.93;62.61;101927.53;5031040;28;20469;-85
2023/06/02 02:04:06;;;;;;;9.95;3.40;;;;;;;9.90;62.88;101925.16;5032224;28;20045;-84
2023/06/02 02:06:32;;;;;;;8.93;3.72;;;;;;;9.86;63.09;101930.06;5004413;28;20026;-84
2023/06/02 02:08:57;;;;;;;;;;;;;;;9.86;62.74;101921.97;5008554;28;20046;-85
2023/06/02 02:11:23;;;;;;;9.95;3.20;;;;;;;9.88;62.76;101934.44;5020935;28;20381;-84
2023/06/02 02:13:51;;;;;;;10.98;3.20;;;;;;;9.88;62.61;101940.63;5014922;28;20026;-83
2023/06/02 02:16:16;;;;;;;9.93;3.38;;;;;;;9.81;62.54;101934.22;5012976;28;20046;-84
2023/06/02 02:18:43;;;;;;;11.77;3.42;;;;;;;9.75;63.20;101943.78;5032837;28;20025;-90
2023/06/02 02:21:09;;;;;;;10.90;3.53;;;;;;;9.71;62.66;101939.75;5038646;28;20052;-88
2023/06/02 02:23:34;;;;;;;12.65;3.50;;;;;;;9.70;62.73;101940.78;5024618;28;20069;-91
2023/06/02 02:26:00;;;;;;;9.27;3.35;;;;;;;9.66;62.41;101934.03;5053389;28;20100;-95
2023/06/02 02:28:25;;;;;;;;;;;;;;;9.62;62.43;101938.06;5053928;28;20047;-91
2023/06/02 02:30:50;;;;;;;9.45;3.35;;;;;;;9.59;62.45;101944.59;5041388;28;19924;-90
2023/06/02 02:33:16;;;;;;;;;;;;;;;9.53;62.49;101934.50;5048672;28;20035;-92
2023/06/02 02:35:42;;;;;;;9.35;3.80;;;;;;;9.47;62.09;101938.69;5047289;28;19916;-92
2023/06/02 02:38:07;;;;;;;;;;;;;;;9.41;62.75;101933.94;5035756;28;20025;-92
2023/06/02 02:40:34;;;;;;;6.73;3.20;;;;;;;9.40;62.72;101934.94;5034851;28;20451;-88
2023/06/02 02:43:00;;;;;;;12.77;3.60;;;;;;;9.39;62.54;101930.56;5045422;28;20269;-93
2023/06/02 02:45:29;;;;;;;9.35;3.83;;;;;;;9.40;62.47;101926.88;5038171;28;20038;-93
2023/06/02 02:48:03;;;;;;;7.20;3.45;;;;;;;9.41;63.13;101936.63;5036909;28;20010;-93
2023/06/02 03:03:52;;;;;;;12.98;3.88;;;;;;;9.33;63.84;101940.13;5006943;23;20067;-93
2023/06/02 03:06:19;;;;;;;8.82;3.40;;;;;;;9.33;63.97;101931.25;5071153;28;20009;-93
2023/06/02 03:09:17;;;;;;;9.95;3.58;;;;;;;9.38;64.00;101942.31;5055320;28;20030;-93
2023/06/02 03:11:43;;;;;;;10.10;3.40;;;;;;;9.36;64.20;101942.50;5017753;28;20041;-93
2023/06/02 03:14:18;;;;;;;9.10;3.97;;;;;;;9.32;64.06;101940.31;5054897;28;20032;-94
2023/06/02 03:16:46;;;;;;;9.15;3.42;;;;;;;9.32;64.36;101937.63;5057046;28;20036;-93
2023/06/02 03:19:24;;;;;;;10.27;3.42;;;;;;;9.31;64.51;101938.63;5043606;28;20025;-93
2023/06/02 03:21:52;;;;;;;11.70;3.28;;;;;;;9.30;63.77;101940.44;5075964;28;20059;-93
2023/06/02 03:24:23;;;;;;;9.32;3.60;;;;;;;9.31;63.84;101942.13;5073406;28;20051;-93
2023/06/02 03:26:51;;;;;;;9.77;3.20;;;;;;;9.35;63.20;101942.69;5073243;28;20028;-93
2023/06/02 03:29:22;;;;;;;10.52;3.47;;;;;;;9.33;63.25;101944.69;5039564;28;20032;-93
2023/06/02 03:31:50;;;;;;;10.95;3.60;;;;;;;9.30;63.52;101942.31;5069472;28;20039;-93
2023/06/02 03:34:16;;;;;;;11.18;3.40;;;;;;;9.28;63.40;101941.63;5074701;28;20029;-94
2023/06/02 03:36:43;;;;;;;12.50;3.30;;;;;;;9.29;63.86;101946.00;5076645;28;20040;-93
2023/06/02 03:39:18;;;;;;;10.38;3.38;;;;;;;9.27;64.45;101946.13;5076749;28;20055;-93
2023/06/02 03:41:45;;;;;;;12.60;3.40;;;;;;;9.23;64.32;101948.31;5075423;28;20005;-92
2023/06/02 03:44:19;;;;;;;9.43;3.10;;;;;;;9.28;64.11;101945.13;5075009;28;20005;-93
2023/06/02 03:46:45;;;;;;;7.55;2.90;;;;;;;9.23;64.50;101934.88;5065034;28;20035;-93
2023/06/02 03:49:29;;;;;;;11.65;3.85;;;;;;;9.27;64.12;101937.25;5070091;28;20008;-93
2023/06/02 03:51:55;;;;;;;8.63;3.58;;;;;;;9.34;64.67;101947.19;5075601;28;20112;-93
2023/06/02 03:54:21;;;;;;;10.82;3.47;;;;;;;9.37;64.09;101946.88;5078461;28;20066;-93
2023/06/02 03:59:54;;;;;;;8.07;3.05;;;;;;;9.30;64.11;101953.06;5038300;28;19940;-93
2023/06/02 04:06:05;;;;;;;12.82;3.65;;;;;;;9.37;63.56;101951.38;5018521;28;20037;-93
2023/06/02 04:09:21;;;;;;;11.68;3.08;;;;;;;9.40;64.07;101959.13;5001037;28;20019;-93
2023/06/02 04:11:47;;;;;;;9.60;2.80;;;;;;;9.42;63.47;101959.00;5015423;28;20022;-93
2023/06/02 04:14:13;;;;;;;14.68;3.03;;;;;;;9.43;63.46;101956.13;5018149;28;20061;-93
2023/06/02 04:16:53;;;;;;;13.27;2.90;;;;;;;9.42;63.53;101954.44;5014177;28;20018;-94
2023/06/02 04:19:19;;;;;;;14.85;3.60;;;;;;;9.45;63.68;101959.50;5027714;28;20068;-93
2023/06/02 04:21:44;;;;;;;10.15;2.88;;;;;;;9.43;63.74;101950.75;5034991;28;20030;-93
2023/06/02 04:24:29;;;;;;;;;;;;;;;9.46;63.95;101963.88;5035320;28;20026;-93
2023/06/02 04:29:29;;;;;;;8.27;2.70;;;;;;;9.54;63.64;101963.88;5119605;23;20080;-94
2023/06/02 04:31:55;;;;;;;9.82;2.63;;;;;;;9.56;63.16;101969.13;5069552;28;20041;-94
2023/06/02 04:34:20;;;;;;;9.00;2.88;;;;;;;9.51;63.48;101956.19;5071676;28;20008;-93
2023/06/02 04:36:58;;;;;;;9.63;2.83;;;;;;;9.49;63.63;101963.56;5075791;28;20028;-94
2023/06/02 04:39:23;;;;;;;7.85;2.33;;;;;;;9.58;62.69;101967.13;5076572;28;20016;-93
2023/06/02 04:41:49;;;;;;;8.15;2.65;;;;;;;9.61;61.90;101965.94;5078261;28;20013;-92
2023/06/02 04:44:16;;;;;;;10.68;2.92;;;;;;;9.64;61.94;101973.69;5058374;28;20024;-92
2023/06/02 04:46:43;;;;;;;10.52;3.03;;;;;;;9.63;61.68;101963.94;5066893;28;20028;-92
2023/06/02 04:49:21;;;;;;;11.02;2.60;;;;;;;9.60;62.00;101973.19;5058366;28;20032;-93
2023/06/02 04:51:46;;;;;;;11.40;2.70;;;;;;;9.66;62.12;101966.28;5070787;28;20055;-92
2023/06/02 04:54:14;;;;;;;8.57;2.80;;;;;;;9.67;61.50;101970.66;5069791;28;20037;-93
2023/06/02 04:56:49;;;;;;;10.38;2.70;;;;;;;9.76;60.89;101966.16;5062587;28;20028;-92
2023/06/02 04:59:28;;;;;;;9.73;2.40;;;;;;;9.71;61.38;101974.69;5059493;28;20025;-92
2023/06/02 05:01:55;;;;;;;8.30;2.75;;;;;;;9.78;61.07;101982.97;5060513;28;20049;-92
2023/06/02 05:04:21;;;;;;;9.10;2.55;;;;;;;9.81;61.01;101975.41;5041937;28;20033;-92
2023/06/02 05:07:04;;;;;;;10.10;2.85;;;;;;;9.82;61.11;101981.63;5052508;28;20033;-92
2023/06/02 05:09:30;;;;;;;10.68;2.83;;;;;;;9.88;61.05;101980.97;5065739;28;20104;-91
2023/06/02 05:12:09;;;;;;;12.85;3.13;;;;;;;9.90;60.95;101987.03;5066791;28;20024;-93
2023/06/02 05:14:50;;;;;;;10.50;2.70;;;;;;;9.93;60.88;101989.41;5066783;28;20034;-92
2023/06/02 05:17:27;;;;;;;11.20;2.97;;;;;;;10.00;61.12;101979.66;5060727;28;20036;-92
2023/06/02 05:19:55;;;;;;;9.63;2.75;;;;;;;10.06;60.71;101977.31;5064497;28;20423;-92
2023/06/02 05:22:32;;;;;;;11.00;3.03;;;;;;;10.18;60.36;101980.53;5069331;28;20025;-92
2023/06/02 05:24:58;;;;;;;14.35;2.92;;;;;;;10.18;60.47;101970.59;5070986;28;20058;-92
2023/06/02 05:27:24;;;;;;;9.88;2.53;;;;;;;10.03;60.93;101973.13;5067132;28;20037;-92
2023/06/02 05:29:59;;;;;;;11.60;3.33;;;;;;;10.11;60.76;101977.66;5069065;28;20075;-94
2023/06/02 05:32:24;;;;;;;10.48;2.67;;;;;;;10.13;60.64;101967.56;5066429;28;20060;-93
2023/06/02 05:35:01;;;;;;;8.55;3.35;;;;;;;10.16;59.83;101973.47;5056158;28;20022;-93
2023/06/02 05:37:30;;;;;;;9.35;2.75;;;;;;;10.26;59.73;101978.69;5062906;28;20045;-92
2023/06/02 05:39:56;;;;;;;8.82;2.63;;;;;;;10.20;60.18;101973.97;5070365;28;20021;-93
2023/06/02 05:42:27;;;;;;;11.27;2.60;;;;;;;10.30;59.89;101979.19;5068546;28;20356;-92
2023/06/02 05:44:52;;;;;;;9.48;2.80;;;;;;;10.32;60.04;101979.84;5063495;28;20029;-93
2023/06/02 05:47:18;;;;;;;11.88;3.00;;;;;;;10.41;59.76;101973.47;5064281;28;20062;-93
2023/06/02 05:49:43;;;;;;;10.40;3.00;;;;;;;10.53;59.80;101983.94;5072089;28;20029;-93
2023/06/02 05:52:09;;;;;;;10.95;2.83;;;;;;;10.68;59.40;101981.41;5068895;28;20032;-93
2023/06/02 05:54:34;;;;;;;12.65;2.67;;;;;;;10.77;58.70;101980.38;5072035;28;20024;-93
2023/06/02 05:57:03;;;;;;;8.88;2.90;;;;;;;10.90;58.88;101977.16;5075514;28;20021;-92
2023/06/02 05:59:28;;;;;;;11.57;2.97;;;;;;;10.87;58.82;101980.19;5091371;28;20016;-93
2023/06/02 06:02:06;;;;;;;10.10;2.60;;;;;;;10.92;58.69;101967.06;5098005;28;20198;-93
2023/06/02 06:04:37;;;;;;;14.25;2.75;;;;;;;10.92;58.91;101975.97;5060821;28;20040;-91
2023/06/02 06:07:18;;;;;;;14.20;2.95;;;;;;;11.09;58.76;101975.94;5042333;28;20021;-92
2023/06/02 06:09:43;;;;;;;12.20;3.17;;;;;;;11.03;58.62;101977.47;5058115;28;20470;-93
2023/06/02 06:12:10;;;;;;;10.05;2.97;;;;;;;11.05;58.88;101978.13;5063787;28;20076;-93
2023/06/02 06:14:35;;;;;;;7.75;2.85;;;;;;;11.09;59.13;101975.09;5063087;28;20447;-88
2023/06/02 06:17:01;;;;;;;11.43;2.67;;;;;;;11.22;58.97;101986.19;5061948;28;20028;-81
2023/06/02 06:19:26;;;;;;;14.23;3.42;;;;;;;11.26;58.61;101979.44;5057825;28;20021;-85
2023/06/02 06:21:53;;;;;;;9.20;3.20;;;;;;;11.13;58.47;101985.38;5053287;28;20048;-85
2023/06/02 06:24:28;;;;;;;10.50;3.33;;;;;;;11.23;58.45;101982.47;5051684;28;20040;-83
2023/06/02 06:26:53;;;;;;;8.60;2.92;;;;;;;11.27;58.52;101985.66;5048646;28;20128;-82
2023/06/02 06:29:19;;;;;;;11.02;3.10;;;;;;;11.26;58.65;101984.81;5035207;28;20045;-87
2023/06/02 06:31:44;;;;;;;8.38;2.65;;;;;;;11.37;58.86;101979.03;5031739;28;20441;-86
2023/06/02 06:34:10;;;;;;;10.80;3.10;;;;;;;11.34;58.52;101979.38;5033564;28;20026;-85
2023/06/02 06:36:36;;;;;;;12.35;3.33;;;;;;;11.28;59.06;101982.81;5048943;28;20065;-84
2023/06/02 06:39:05;;;;;;;8.40;3.28;;;;;;;11.38;59.06;101978.03;5032451;28;20108;-84
2023/06/02 06:41:30;;;;;;;12.13;3.47;;;;;;;11.42;58.70;101978.50;5052103;28;20052;-85
2023/06/02 06:43:56;;;;;;;9.00;3.00;;;;;;;11.55;58.41;101982.53;5051431;28;20021;-86
2023/06/02 06:46:21;;;;;;;14.15;3.20;;;;;;;11.47;58.92;101986.09;5049157;28;20053;-84
2023/06/02 06:48:47;;;;;;;13.10;3.28;;;;;;;11.63;58.76;101988.72;5068100;28;20029;-85
2023/06/02 06:51:12;;;;;;;10.73;3.20;;;;;;;11.76;58.14;101995.41;5072200;28;20032;-83
2023/06/02 06:53:37;;;;;;;15.48;3.40;;;;;;;11.70;57.94;101993.41;5070570;28;20489;-82
2023/06/02 06:56:04;;;;;;;12.10;3.42;;;;;;;11.81;57.90;101993.84;5054077;28;20041;-82
2023/06/02 06:58:29;;;;;;;12.82;3.67;;;;;;;11.88;57.61;101987.75;5047879;28;20029;-83
2023/06/02 07:00:55;;;;;;;9.82;3.13;;;;;;;12.04;57.64;101993.06;5049706;28;20025;-88
2023/06/02 07:03:20;;;;;;;9.15;3.40;;;;;;;12.10;57.49;101997.75;5047792;28;20522;-79
2023/06/02 07:05:46;;;;;;;9.18;3.20;;;;;;;12.10;56.78;101997.75;5050835;28;20079;-82
2023/06/02 07:08:11;;;;;;;15.68;3.58;;;;;;;12.23;56.59;101999.03;5049808;28;20472;-81
2023/06/02 07:10:37;;;;;;;13.18;2.97;;;;;;;12.16;57.43;101996.22;5055348;28;20104;-81
2023/06/02 07:13:02;;;;;;;12.75;2.83;;;;;;;12.45;56.20;101989.22;5056893;28;20234;-84
2023/06/02 07:15:28;;;;;;;8.50;2.90;;;;;;;12.53;56.44;101997.25;5053128;28;20025;-84
2023/06/02 07:17:53;;;;;;;10.73;3.53;;;;;;;12.74;55.67;101995.72;5046410;28;20033;-85
2023/06/02 07:20:18;;;;;;;14.02;3.22;;;;;;;12.91;55.18;101999.13;5041236;28;20739;-85
2023/06/02 07:22:44;;;;;;;13.38;3.90;;;;;;;12.75;55.12;101994.69;5050960;28;20043;-87
2023/06/02 07:25:09;;;;;;;10.85;3.35;;;;;;;12.74;55.61;102003.84;5047856;28;20102;-85
2023/06/02 07:27:35;;;;;;;12.15;3.08;;;;;;;12.82;56.15;102011.03;5053335;28;20032;-81
2023/06/02 07:30:00;;;;;;;13.77;3.10;;;;;;;12.78;55.17;102005.16;5049985;28;20403;-84
2023/06/02 07:32:25;;;;;;;8.75;2.90;;;;;;;12.86;56.00;102012.34;5051071;28;20506;-82
2023/06/02 07:34:51;;;;;;;10.65;3.22;;;;;;;12.98;55.23;102010.84;5051909;28;20017;-83
2023/06/02 07:37:16;;;;;;;16.73;3.45;;;;;;;13.26;55.13;102014.78;5049465;28;20023;-81
2023/06/02 07:39:42;;;;;;;10.98;3.20;;;;;;;13.35;54.71;102011.00;5047245;28;20385;-78
2023/06/02 07:42:07;;;;;;;15.63;3.72;;;;;;;13.31;54.96;102012.38;5066108;28;20017;-80
2023/06/02 07:44:32;;;;;;;14.27;3.65;;;;;;;13.46;54.77;102015.94;5051190;28;20106;-80
2023/06/02 07:46:58;;;;;;;14.07;3.30;;;;;;;13.55;54.38;102015.84;5051703;28;20029;-80
2023/06/02 07:49:23;;;;;;;7.15;2.88;;;;;;;13.52;54.28;102016.22;5058252;28;20029;-80
2023/06/02 07:51:51;;;;;;;10.13;3.47;;;;;;;13.45;54.43;102010.75;5056881;28;20025;-81
2023/06/02 07:54:17;;;;;;;16.65;4.25;;;;;;;13.35;54.66;102011.81;5056067;28;20285;-81
2023/06/02 07:56:42;;;;;;;15.93;3.65;;;;;;;13.52;55.06;102016.22;5051153;28;20164;-81
2023/06/02 07:59:11;;;;;;;16.23;3.38;;;;;;;13.69;55.00;102023.13;5051133;28;20469;-80
2023/06/02 08:01:37;;;;;;;12.98;3.75;;;;;;;13.76;53.93;102018.63;5050061;28;20029;-81
2023/06/02 08:04:02;;;;;;;10.00;3.40;;;;;;;13.80;53.52;102017.19;5051068;28;20028;-82
2023/06/02 08:06:27;;;;;;;17.27;3.60;;;;;;;13.82;53.83;102008.91;5050569;28;20032;-82
2023/06/02 08:08:53;;;;;;;12.52;3.55;;;;;;;13.95;53.58;102011.75;5049646;28;20025;-83
2023/06/02 08:11:20;;;;;;;11.30;2.90;;;;;;;14.15;53.35;102011.16;5050482;28;20435;-83
2023/06/02 08:13:46;;;;;;;13.95;3.75;;;;;;;14.03;53.69;102018.94;5050990;28;20104;-83
2023/06/02 08:16:11;;;;;;;9.32;3.25;;;;;;;14.01;53.60;102014.75;5050496;28;20372;-80
2023/06/02 08:18:36;;;;;;;14.90;3.58;;;;;;;13.96;54.61;102026.13;5051358;28;20358;-82
2023/06/02 08:21:04;;;;;;;14.30;4.15;;;;;;;13.82;54.35;102014.31;5041376;28;20076;-82
2023/06/02 08:23:30;;;;;;;10.35;3.47;;;;;;;13.95;54.39;102021.75;5044083;28;20036;-79
2023/06/02 08:25:58;;;;;;;13.77;3.80;;;;;;;14.08;54.25;102021.91;5048677;28;20040;-81
2023/06/02 08:28:25;;;;;;;12.00;3.65;;;;;;;14.08;54.10;102021.06;5048934;28;20537;-79
2023/06/02 08:30:51;;;;;;;13.73;3.50;;;;;;;14.04;54.13;102020.59;5049269;28;20132;-81
2023/06/02 08:33:17;;;;;;;14.43;4.35;;;;;;;13.90;54.73;102014.19;5050270;28;20108;-79
2023/06/02 08:35:42;;;;;;;15.07;4.00;;;;;;;14.15;54.33;102021.13;5050768;28;20130;-81
2023/06/02 08:38:08;;;;;;;14.63;4.28;;;;;;;14.56;53.27;102023.19;5049243;28;20507;-81
2023/06/02 08:40:37;;;;;;;11.55;4.13;;;;;;;14.74;52.62;102024.63;5048614;28;20534;-81
2023/06/02 08:43:08;;;;;;;11.57;4.05;;;;;;;14.53;52.83;102020.88;5049736;28;20036;-79
2023/06/02 08:45:34;;;;;;;11.82;3.53;;;;;;;14.27;53.30;102030.44;5049180;28;20187;-81
2023/06/02 08:48:00;;;;;;;14.48;3.83;;;;;;;14.34;53.89;102019.66;5049310;28;20064;-81
2023/06/02 08:50:35;;;;;;;11.52;3.92;;;;;;;14.42;53.64;102016.00;5034075;28;20025;-81
2023/06/02 08:53:04;;;;;;;12.35;3.90;;;;;;;14.40;53.65;102018.88;5048904;28;20064;-81
2023/06/02 08:55:29;;;;;;;11.00;3.38;;;;;;;14.74;53.09;102025.47;5049524;28;20032;-81
2023/06/02 08:57:55;;;;;;;14.15;3.70;;;;;;;14.88;52.38;102021.00;5048852;28;20032;-81
2023/06/02 09:00:20;;;;;;;11.32;4.07;;;;;;;15.05;51.70;102031.53;5046788;28;20037;-83
2023/06/02 09:02:47;;;;;;;12.82;4.03;;;;;;;15.06;51.37;102030.50;5056945;28;20067;-81
2023/06/02 09:05:14;;;;;;;12.90;4.30;;;;;;;15.40;50.73;102035.09;5043344;28;20032;-80
2023/06/02 09:07:39;;;;;;;11.57;3.97;;;;;;;15.48;50.66;102025.97;5047082;28;20137;-81
2023/06/02 09:10:06;;;;;;;13.98;4.20;;;;;;;15.76;50.33;102033.19;5049082;28;20048;-86
2023/06/02 09:12:48;;;;;;;19.20;5.13;;;;;;;15.76;50.17;102027.75;5034710;28;20048;-78
2023/06/02 09:15:13;;;;;;;13.30;3.50;;;;;;;15.90;49.83;102024.06;5034319;28;20032;-78
2023/06/02 09:17:39;;;;;;;12.32;4.00;;;;;;;15.97;49.78;102029.53;5049651;28;20106;-80
2023/06/02 09:20:11;;;;;;;14.25;3.95;;;;;;;15.98;50.21;102035.81;5047907;28;20024;-82
2023/06/02 09:22:58;;;;;;;15.90;3.95;;;;;;;16.02;49.69;102031.66;5047881;28;20132;-81
2023/06/02 09:25:24;;;;;;;;;;;;;;;15.87;50.28;102035.34;5031014;28;20037;-82
2023/06/02 09:27:51;;;;;;;9.98;3.78;;;;;;;15.94;50.49;102039.97;5039918;28;20000;-80
2023/06/02 09:30:17;;;;;;;12.60;3.80;;;;;;;16.04;49.65;102029.56;5053061;28;20021;-81
2023/06/02 09:32:51;;;;;;;11.18;3.78;;;;;;;16.43;49.84;102027.13;5052844;28;20433;-81
2023/06/02 09:35:40;;;;;;;11.13;3.90;;;;;;;16.35;49.31;102025.44;5051471;28;20085;-81
2023/06/02 09:38:07;;;;;;;12.95;4.43;;;;;;;16.39;49.30;102024.00;5052555;28;20480;-79
2023/06/02 09:40:34;;;;;;;16.65;3.75;;;;;;;16.06;49.88;102022.88;5052444;28;20100;-80
2023/06/02 09:43:04;;;;;;;8.80;3.90;;;;;;;15.85;51.00;102032.00;5052288;28;20476;-79
2023/06/02 09:45:30;;;;;;;13.27;4.15;;;;;;;15.99;50.58;102032.03;5051643;28;20086;-79
2023/06/02 09:47:55;;;;;;;12.32;4.15;;;;;;;15.97;50.39;102028.69;5051331;28;20476;-79
2023/06/02 09:50:31;;;;;;;13.38;4.68;;;;;;;16.08;50.71;102028.09;5034719;28;20028;-79
2023/06/02 09:53:01;;;;;;;13.93;4.40;;;;;;;16.39;49.89;102020.41;5050680;28;20029;-79
2023/06/02 09:55:27;;;;;;;13.50;4.25;;;;;;;16.47;49.43;102018.34;5052433;28;20021;-79
2023/06/02 09:57:52;;;;;;;13.27;4.35;;;;;;;16.43;49.70;102014.34;5034560;28;20041;-79
2023/06/02 10:00:18;;;;;;;11.48;4.03;;;;;;;16.32;50.28;102015.84;5052415;28;20029;-81
2023/06/02 10:02:44;;;;;;;11.48;3.42;;;;;;;16.43;49.63;102014.34;5035986;28;20029;-80
2023/06/02 10:05:09;;;;;;;11.30;4.30;;;;;;;16.46;49.23;102010.41;5034623;28;20037;-80
2023/06/02 10:07:50;;;;;;;9.88;3.60;;;;;;;16.69;49.44;102023.59;5052120;28;20028;-79
2023/06/02 10:10:34;;;;;;;10.68;4.20;;;;;;;16.61;49.33;102018.34;5052366;28;20064;-80
2023/06/02 10:13:40;;;;;;;13.40;4.50;;;;;;;16.21;50.62;102024.56;5034744;28;20107;-78
2023/06/02 10:16:10;;;;;;;11.23;4.20;;;;;;;16.55;50.20;102011.03;5034834;28;20056;-79
2023/06/02 10:19:06;;;;;;;12.43;4.45;;;;;;;16.26;50.00;102010.38;5032815;28;20037;-79
2023/06/02 10:21:42;;;;;;;11.30;3.70;;;;;;;16.47;49.75;102012.91;5052506;28;20111;-79
2023/06/02 10:24:26;;;;;;;12.25;3.97;;;;;;;16.62;50.11;102015.44;5033231;28;20055;-79
2023/06/02 10:27:11;;;;;;;11.13;4.05;;;;;;;16.90;49.57;102011.63;5033795;28;20072;-80
2023/06/02 10:29:36;;;;;;;11.23;3.97;;;;;;;17.31;48.41;102012.41;5017054;28;20417;-80
2023/06/02 10:32:22;;;;;;;12.82;4.10;;;;;;;17.48;47.91;102020.13;5018288;28;20132;-80
2023/06/02 10:34:51;;;;;;;8.35;3.85;;;;;;;17.52;48.21;102021.38;5052075;28;20033;-80
2023/06/02 10:37:17;;;;;;;15.18;3.75;;;;;;;17.86;47.07;102020.19;5050805;28;20055;-79
2023/06/02 10:39:42;;;;;;;9.07;4.00;;;;;;;17.80;47.15;102020.22;5050089;28;20381;-81
2023/06/02 10:42:09;;;;;;;13.33;4.23;;;;;;;17.75;47.15;102020.03;5053117;28;20021;-80
2023/06/02 10:44:34;;;;;;;9.60;3.80;;;;;;;17.87;46.96;102023.72;5049172;28;20295;-80
2023/06/02 10:47:18;;;;;;;13.02;4.40;;;;;;;17.46;48.20;102023.06;5033566;28;20043;-79
2023/06/02 10:49:55;;;;;;;11.38;3.85;;;;;;;17.26;48.50;102025.84;5051155;28;20093;-79
2023/06/02 10:52:20;;;;;;;12.10;4.10;;;;;;;17.29;48.47;102017.28;5050546;28;20120;-79
2023/06/02 10:55:12;;;;;;;15.90;4.18;;;;;;;17.56;47.75;102020.72;5050296;28;20096;-79
2023/06/02 10:57:56;;;;;;;14.20;4.20;;;;;;;18.23;46.40;102018.75;5050816;28;20111;-80
2023/06/02 11:00:36;;;;;;;12.65;4.10;;;;;;;18.27;46.13;102018.09;5050851;28;20128;-80
2023/06/02 11:03:17;;;;;;;13.77;4.55;;;;;;;18.36;46.09;102015.94;5050711;28;20123;-79
2023/06/02 11:05:43;;;;;;;14.38;4.70;;;;;;;18.57;45.78;102014.72;5020341;28;20084;-79
2023/06/02 11:08:12;;;;;;;12.63;4.93;;;;;;;18.63;45.99;102024.75;5045176;28;20033;-81
2023/06/02 11:10:48;;;;;;;13.05;4.38;;;;;;;19.07;44.52;102016.59;5055375;28;20033;-82
2023/06/02 11:13:14;;;;;;;10.38;4.03;;;;;;;18.90;45.13;102018.22;5032688;28;20087;-82
2023/06/02 11:15:58;;;;;;;15.20;4.63;;;;;;;19.08;44.75;102006.50;5049278;28;20449;-85
2023/06/02 11:18:32;;;;;;;12.60;4.78;;;;;;;18.92;45.10;102014.19;5019426;28;20357;-83
2023/06/02 11:20:59;;;;;;;9.48;4.20;;;;;;;18.84;45.59;102017.22;5036776;28;20032;-86
2023/06/02 11:23:25;;;;;;;11.80;4.45;;;;;;;18.82;45.86;102019.34;5064049;28;20043;-85
2023/06/02 11:26:06;;;;;;;14.23;4.50;;;;;;;18.88;45.34;102026.63;5070479;28;20449;-86
2023/06/02 11:28:32;;;;;;;12.60;4.00;;;;;;;18.58;46.22;102021.84;5053479;28;20053;-86
2023/06/02 11:31:13;;;;;;;10.77;4.30;;;;;;;18.51;46.99;102022.94;5050756;28;20063;-86
2023/06/02 11:33:41;;;;;;;9.13;4.70;;;;;;;18.67;45.99;102018.84;5030004;28;20033;-86
2023/06/02 11:36:10;;;;;;;9.48;4.40;;;;;;;18.31;46.55;102018.47;5031140;28;20449;-86
2023/06/02 11:38:38;;;;;;;14.98;4.78;;;;;;;18.29;46.99;102010.53;5031022;28;20025;-86
2023/06/02 11:41:12;;;;;;;8.95;4.10;;;;;;;18.34;46.90;102015.31;5043089;28;20090;-86
2023/06/02 11:43:42;;;;;;;11.10;4.30;;;;;;;18.58;46.73;102021.00;5051526;28;20136;-86
2023/06/02 11:46:11;;;;;;;12.50;4.50;;;;;;;18.80;46.13;102018.72;5064280;23;20049;-85
2023/06/02 11:48:40;;;;;;;11.65;4.38;;;;;;;19.05;45.67;102016.00;5052820;28;20117;-85
2023/06/02 11:51:06;;;;;;;12.15;4.50;;;;;;;19.39;44.91;102019.19;5057763;28;20025;-84
2023/06/02 11:53:32;;;;;;;12.40;4.85;;;;;;;19.48;44.11;102019.72;5140855;23;20053;-88
2023/06/02 11:55:57;;;;;;;12.80;4.68;;;;;;;19.44;44.43;102018.50;5032073;28;20202;-83